sensor_id;sensor_type;location;lat;lon;timestamp;temperature;humidity
37646;DHT22;23489;49.600;6.138;2023-05-10T00:00:51;12.10;99.90
37646;DHT22;23489;49.600;6.138;2023-05-10T00:03:17;12.10;99.90
37646;DHT22;23489;49.600;6.138;2023-05-10T00:05:42;12.10;99.90
37646;DHT22;23489;49.600;6.138;2023-05-10T00:08:08;12.10;99.90
37646;DHT22;23489;49.600;6.138;2023-05-10T00:10:33;12.10;99.90
37646;DHT22;23489;49.600;6.138;2023-05-10T00:12:59;12.10;99.90
37646;DHT22;23489;49.600;6.138;2023-05-10T00:15:25;12.10;99.90
37646;DHT22;23489;49.600;6.138;2023-05-10T00:17:51;12.10;99.90
37646;DHT22;23489;49.600;6.138;2023-05-10T00:20:16;12.20;99.90
37646;DHT22;23489;49.600;6.138;2023-05-10T00:22:42;12.20;99.90
37646;DHT22;23489;49.600;6.138;2023-05-10T00:25:08;12.20;99.90
37646;DHT22;23489;49.600;6.138;2023-05-10T00:27:34;12.20;99.90
37646;DHT22;23489;49.600;6.138;2023-05-10T00:30:00;12.20;99.90
37646;DHT22;23489;49.600;6.138;2023-05-10T00:32:25;12.20;99.90
37646;DHT22;23489;49.600;6.138;2023-05-10T00:34:51;12.10;99.90
37646;DHT22;23489;49.600;6.138;2023-05-10T00:37:16;12.20;99.90
37646;DHT22;23489;49.600;6.138;2023-05-10T00:39:42;12.10;99.90
37646;DHT22;23489;49.600;6.138;2023-05-10T00:42:08;12.10;99.90
37646;DHT22;23489;49.600;6.138;2023-05-10T00:44:34;12.10;99.90
37646;DHT22;23489;49.600;6.138;2023-05-10T00:46:59;12.00;99.90
37646;DHT22;23489;49.600;6.138;2023-05-10T00:49:25;12.00;99.90
37646;DHT22;23489;49.600;6.138;2023-05-10T00:51:51;11.90;99.90
37646;DHT22;23489;49.600;6.138;2023-05-10T00:54:17;11.90;99.90
37646;DHT22;23489;49.600;6.138;2023-05-10T00:56:43;11.90;99.90
37646;DHT22;23489;49.600;6.138;2023-05-10T00:59:18;11.90;99.90
37646;DHT22;23489;49.600;6.138;2023-05-10T01:01:45;11.90;99.90
37646;DHT22;23489;49.600;6.138;2023-05-10T01:04:13;11.90;99.90
37646;DHT22;23489;49.600;6.138;2023-05-10T01:06:42;11.90;99.90
37646;DHT22;23489;49.600;6.138;2023-05-10T01:09:08;11.90;99.90
37646;DHT22;23489;49.600;6.138;2023-05-10T01:11:38;12.00;99.90
37646;DHT22;23489;49.600;6.138;2023-05-10T01:14:05;12.00;99.90
37646;DHT22;23489;49.600;6.138;2023-05-10T01:16:37;12.00;99.90
37646;DHT22;23489;49.600;6.138;2023-05-10T01:19:16;12.00;99.90
37646;DHT22;23489;49.600;6.138;2023-05-10T01:21:50;12.00;99.90
37646;DHT22;23489;49.600;6.138;2023-05-10T01:24:38;12.00;99.90
37646;DHT22;23489;49.600;6.138;2023-05-10T01:33:05;12.10;99.90
37646;DHT22;23489;49.600;6.138;2023-05-10T01:35:59;12.10;99.90
37646;DHT22;23489;49.600;6.138;2023-05-10T01:38:44;12.10;99.90
37646;DHT22;23489;49.600;6.138;2023-05-10T01:41:35;12.10;99.90
37646;DHT22;23489;49.600;6.138;2023-05-10T01:44:11;12.10;99.90
37646;DHT22;23489;49.600;6.138;2023-05-10T01:46:40;12.10;99.90
37646;DHT22;23489;49.600;6.138;2023-05-10T01:49:13;12.10;99.90
37646;DHT22;23489;49.600;6.138;2023-05-10T01:51:48;12.10;99.90
37646;DHT22;23489;49.600;6.138;2023-05-10T01:54:19;12.10;99.90
37646;DHT22;23489;49.600;6.138;2023-05-10T01:56:48;12.10;99.90
37646;DHT22;23489;49.600;6.138;2023-05-10T01:59:18;12.10;99.90
37646;DHT22;23489;49.600;6.138;2023-05-10T02:01:45;12.10;99.90
37646;DHT22;23489;49.600;6.138;2023-05-10T02:04:15;12.00;99.90
37646;DHT22;23489;49.600;6.138;2023-05-10T02:06:42;12.00;99.90
37646;DHT22;23489;49.600;6.138;2023-05-10T02:09:10;12.00;99.90
37646;DHT22;23489;49.600;6.138;2023-05-10T02:11:41;11.90;99.90
37646;DHT22;23489;49.600;6.138;2023-05-10T02:14:09;11.90;99.90
37646;DHT22;23489;49.600;6.138;2023-05-10T02:16:38;11.90;99.90
37646;DHT22;23489;49.600;6.138;2023-05-10T02:19:05;11.90;99.90
37646;DHT22;23489;49.600;6.138;2023-05-10T02:21:31;11.90;99.90
37646;DHT22;23489;49.600;6.138;2023-05-10T02:24:01;11.90;99.90
37646;DHT22;23489;49.600;6.138;2023-05-10T02:26:28;11.90;99.90
37646;DHT22;23489;49.600;6.138;2023-05-10T02:28:56;11.90;99.90
37646;DHT22;23489;49.600;6.138;2023-05-10T02:31:23;11.90;99.90
37646;DHT22;23489;49.600;6.138;2023-05-10T02:33:49;11.80;99.90
37646;DHT22;23489;49.600;6.138;2023-05-10T02:36:17;11.80;99.90
37646;DHT22;23489;49.600;6.138;2023-05-10T02:38:45;11.80;99.90
37646;DHT22;23489;49.600;6.138;2023-05-10T02:41:12;11.80;99.90
37646;DHT22;23489;49.600;6.138;2023-05-10T02:43:39;11.80;99.90
37646;DHT22;23489;49.600;6.138;2023-05-10T02:46:06;11.70;99.90
37646;DHT22;23489;49.600;6.138;2023-05-10T02:48:31;11.70;99.90
37646;DHT22;23489;49.600;6.138;2023-05-10T02:51:06;11.70;99.90
37646;DHT22;23489;49.600;6.138;2023-05-10T02:53:35;11.70;99.90
37646;DHT22;23489;49.600;6.138;2023-05-10T02:56:11;11.70;99.90
37646;DHT22;23489;49.600;6.138;2023-05-10T02:58:38;11.70;99.90
37646;DHT22;23489;49.600;6.138;2023-05-10T03:01:04;11.70;99.90
37646;DHT22;23489;49.600;6.138;2023-05-10T03:03:30;11.70;99.90
37646;DHT22;23489;49.600;6.138;2023-05-10T03:05:55;11.70;99.90
37646;DHT22;23489;49.600;6.138;2023-05-10T03:08:23;11.70;99.90
37646;DHT22;23489;49.600;6.138;2023-05-10T03:11:21;11.70;99.90
37646;DHT22;23489;49.600;6.138;2023-05-10T03:16:50;11.60;99.90
37646;DHT22;23489;49.600;6.138;2023-05-10T03:21:52;11.50;99.90
37646;DHT22;23489;49.600;6.138;2023-05-10T03:24:21;11.50;99.90
37646;DHT22;23489;49.600;6.138;2023-05-10T03:26:49;11.50;99.90
37646;DHT22;23489;49.600;6.138;2023-05-10T03:29:17;11.40;99.90
37646;DHT22;23489;49.600;6.138;2023-05-10T03:31:43;11.40;99.90
37646;DHT22;23489;49.600;6.138;2023-05-10T03:34:08;11.40;99.90
37646;DHT22;23489;49.600;6.138;2023-05-10T03:36:34;11.40;99.90
37646;DHT22;23489;49.600;6.138;2023-05-10T03:39:01;11.40;99.90
37646;DHT22;23489;49.600;6.138;2023-05-10T03:41:26;11.40;99.90
37646;DHT22;23489;49.600;6.138;2023-05-10T03:43:53;11.40;99.90
37646;DHT22;23489;49.600;6.138;2023-05-10T03:46:18;11.40;99.90
37646;DHT22;23489;49.600;6.138;2023-05-10T03:48:44;11.40;99.90
37646;DHT22;23489;49.600;6.138;2023-05-10T03:51:10;11.50;99.90
37646;DHT22;23489;49.600;6.138;2023-05-10T03:53:36;11.50;99.90
37646;DHT22;23489;49.600;6.138;2023-05-10T03:56:01;11.40;99.90
37646;DHT22;23489;49.600;6.138;2023-05-10T03:58:27;11.40;99.90
37646;DHT22;23489;49.600;6.138;2023-05-10T04:00:53;11.40;99.90
37646;DHT22;23489;49.600;6.138;2023-05-10T04:03:19;11.40;99.90
37646;DHT22;23489;49.600;6.138;2023-05-10T04:05:45;11.30;99.90
37646;DHT22;23489;49.600;6.138;2023-05-10T04:08:11;11.30;99.90
37646;DHT22;23489;49.600;6.138;2023-05-10T04:10:37;11.40;99.90
37646;DHT22;23489;49.600;6.138;2023-05-10T04:13:02;11.30;99.90
37646;DHT22;23489;49.600;6.138;2023-05-10T04:15:28;11.30;99.90
37646;DHT22;23489;49.600;6.138;2023-05-10T04:17:53;11.30;99.90
37646;DHT22;23489;49.600;6.138;2023-05-10T04:20:19;11.30;99.90
37646;DHT22;23489;49.600;6.138;2023-05-10T04:22:45;11.30;99.90
37646;DHT22;23489;49.600;6.138;2023-05-10T04:25:11;11.30;99.90
37646;DHT22;23489;49.600;6.138;2023-05-10T04:27:36;11.30;99.90
37646;DHT22;23489;49.600;6.138;2023-05-10T04:30:02;11.30;99.90
37646;DHT22;23489;49.600;6.138;2023-05-10T04:32:28;11.30;99.90
37646;DHT22;23489;49.600;6.138;2023-05-10T04:34:54;11.30;99.90
37646;DHT22;23489;49.600;6.138;2023-05-10T04:37:20;11.40;99.90
37646;DHT22;23489;49.600;6.138;2023-05-10T04:39:46;11.40;99.90
37646;DHT22;23489;49.600;6.138;2023-05-10T04:42:12;11.40;99.90
37646;DHT22;23489;49.600;6.138;2023-05-10T04:44:40;11.40;99.90
37646;DHT22;23489;49.600;6.138;2023-05-10T04:47:06;11.50;99.90
37646;DHT22;23489;49.600;6.138;2023-05-10T04:49:31;11.60;99.90
37646;DHT22;23489;49.600;6.138;2023-05-10T04:51:57;11.60;99.90
37646;DHT22;23489;49.600;6.138;2023-05-10T04:54:23;11.60;99.90
37646;DHT22;23489;49.600;6.138;2023-05-10T04:56:48;11.70;99.90
37646;DHT22;23489;49.600;6.138;2023-05-10T04:59:14;11.70;99.90
37646;DHT22;23489;49.600;6.138;2023-05-10T05:01:40;11.80;99.90
37646;DHT22;23489;49.600;6.138;2023-05-10T05:04:05;11.90;99.90
37646;DHT22;23489;49.600;6.138;2023-05-10T05:06:32;12.00;99.90
37646;DHT22;23489;49.600;6.138;2023-05-10T05:08:57;11.90;99.90
37646;DHT22;23489;49.600;6.138;2023-05-10T05:11:23;11.90;99.90
37646;DHT22;23489;49.600;6.138;2023-05-10T05:13:49;11.80;99.90
37646;DHT22;23489;49.600;6.138;2023-05-10T05:16:14;11.80;99.90
37646;DHT22;23489;49.600;6.138;2023-05-10T05:18:40;11.80;99.90
37646;DHT22;23489;49.600;6.138;2023-05-10T05:21:16;11.80;99.90
37646;DHT22;23489;49.600;6.138;2023-05-10T05:23:42;11.80;99.90
37646;DHT22;23489;49.600;6.138;2023-05-10T05:26:08;11.80;99.90
37646;DHT22;23489;49.600;6.138;2023-05-10T05:28:33;11.80;99.90
37646;DHT22;23489;49.600;6.138;2023-05-10T05:31:06;11.80;99.90
37646;DHT22;23489;49.600;6.138;2023-05-10T05:33:33;11.90;99.90
37646;DHT22;23489;49.600;6.138;2023-05-10T05:36:03;11.90;99.90
37646;DHT22;23489;49.600;6.138;2023-05-10T05:38:29;11.90;99.90
37646;DHT22;23489;49.600;6.138;2023-05-10T05:40:54;12.00;99.90
37646;DHT22;23489;49.600;6.138;2023-05-10T05:43:20;12.20;99.90
37646;DHT22;23489;49.600;6.138;2023-05-10T05:45:46;12.30;99.90
37646;DHT22;23489;49.600;6.138;2023-05-10T05:48:11;12.40;99.90
37646;DHT22;23489;49.600;6.138;2023-05-10T05:50:37;12.30;99.90
37646;DHT22;23489;49.600;6.138;2023-05-10T05:53:02;12.20;99.90
37646;DHT22;23489;49.600;6.138;2023-05-10T05:55:28;12.20;99.90
37646;DHT22;23489;49.600;6.138;2023-05-10T05:57:55;11.90;99.90
37646;DHT22;23489;49.600;6.138;2023-05-10T06:00:20;11.90;99.90
37646;DHT22;23489;49.600;6.138;2023-05-10T06:02:47;11.90;99.90
37646;DHT22;23489;49.600;6.138;2023-05-10T06:05:13;11.90;99.90
37646;DHT22;23489;49.600;6.138;2023-05-10T06:07:39;11.90;99.90
37646;DHT22;23489;49.600;6.138;2023-05-10T06:10:08;11.90;99.90
37646;DHT22;23489;49.600;6.138;2023-05-10T06:12:34;11.90;99.90
37646;DHT22;23489;49.600;6.138;2023-05-10T06:15:00;12.00;99.90
37646;DHT22;23489;49.600;6.138;2023-05-10T06:17:26;12.10;99.90
37646;DHT22;23489;49.600;6.138;2023-05-10T06:19:51;12.20;99.90
37646;DHT22;23489;49.600;6.138;2023-05-10T06:22:17;12.30;99.90
37646;DHT22;23489;49.600;6.138;2023-05-10T06:24:43;12.30;99.90
37646;DHT22;23489;49.600;6.138;2023-05-10T06:27:08;12.30;99.90
37646;DHT22;23489;49.600;6.138;2023-05-10T06:29:34;12.50;99.90
37646;DHT22;23489;49.600;6.138;2023-05-10T06:32:00;12.60;99.90
37646;DHT22;23489;49.600;6.138;2023-05-10T06:34:25;12.60;99.90
37646;DHT22;23489;49.600;6.138;2023-05-10T06:36:51;12.60;99.90
37646;DHT22;23489;49.600;6.138;2023-05-10T06:39:17;12.70;99.90
37646;DHT22;23489;49.600;6.138;2023-05-10T06:41:42;12.70;99.90
37646;DHT22;23489;49.600;6.138;2023-05-10T06:44:08;12.70;99.90
37646;DHT22;23489;49.600;6.138;2023-05-10T06:46:34;12.80;99.90
37646;DHT22;23489;49.600;6.138;2023-05-10T06:48:59;12.90;99.90
37646;DHT22;23489;49.600;6.138;2023-05-10T06:51:25;13.00;99.90
37646;DHT22;23489;49.600;6.138;2023-05-10T06:53:51;13.00;99.90
37646;DHT22;23489;49.600;6.138;2023-05-10T06:56:17;13.00;99.90
37646;DHT22;23489;49.600;6.138;2023-05-10T06:58:42;13.00;99.90
37646;DHT22;23489;49.600;6.138;2023-05-10T07:01:08;13.20;99.90
37646;DHT22;23489;49.600;6.138;2023-05-10T07:03:33;13.60;99.90
37646;DHT22;23489;49.600;6.138;2023-05-10T07:06:01;14.00;99.90
37646;DHT22;23489;49.600;6.138;2023-05-10T07:08:28;14.30;99.90
37646;DHT22;23489;49.600;6.138;2023-05-10T07:11:03;14.50;99.90
37646;DHT22;23489;49.600;6.138;2023-05-10T07:13:32;15.20;99.90
37646;DHT22;23489;49.600;6.138;2023-05-10T07:15:59;15.90;99.90
37646;DHT22;23489;49.600;6.138;2023-05-10T07:18:25;16.20;99.90
37646;DHT22;23489;49.600;6.138;2023-05-10T07:20:51;16.30;99.90
37646;DHT22;23489;49.600;6.138;2023-05-10T07:23:17;16.20;99.90
37646;DHT22;23489;49.600;6.138;2023-05-10T07:25:47;15.80;99.90
37646;DHT22;23489;49.600;6.138;2023-05-10T07:28:16;15.50;99.90
37646;DHT22;23489;49.600;6.138;2023-05-10T07:30:42;15.40;99.90
37646;DHT22;23489;49.600;6.138;2023-05-10T07:33:09;15.40;99.90
37646;DHT22;23489;49.600;6.138;2023-05-10T07:35:35;15.40;99.90
37646;DHT22;23489;49.600;6.138;2023-05-10T07:38:01;15.40;99.90
37646;DHT22;23489;49.600;6.138;2023-05-10T07:40:26;15.20;99.90
37646;DHT22;23489;49.600;6.138;2023-05-10T07:42:52;15.00;99.90
37646;DHT22;23489;49.600;6.138;2023-05-10T07:45:18;14.70;99.90
37646;DHT22;23489;49.600;6.138;2023-05-10T07:47:44;14.50;99.90
37646;DHT22;23489;49.600;6.138;2023-05-10T07:50:09;14.10;99.90
37646;DHT22;23489;49.600;6.138;2023-05-10T07:52:35;13.80;99.90
37646;DHT22;23489;49.600;6.138;2023-05-10T07:55:00;13.40;99.90
37646;DHT22;23489;49.600;6.138;2023-05-10T07:57:26;13.30;99.90
37646;DHT22;23489;49.600;6.138;2023-05-10T07:59:52;13.20;99.90
37646;DHT22;23489;49.600;6.138;2023-05-10T08:02:17;13.10;99.90
37646;DHT22;23489;49.600;6.138;2023-05-10T08:04:43;13.10;99.90
37646;DHT22;23489;49.600;6.138;2023-05-10T08:07:08;13.20;99.90
37646;DHT22;23489;49.600;6.138;2023-05-10T08:09:34;13.30;99.90
37646;DHT22;23489;49.600;6.138;2023-05-10T08:11:59;13.30;99.90
37646;DHT22;23489;49.600;6.138;2023-05-10T08:14:25;13.60;99.90
37646;DHT22;23489;49.600;6.138;2023-05-10T08:16:51;13.50;99.90
37646;DHT22;23489;49.600;6.138;2023-05-10T08:19:16;13.70;99.90
37646;DHT22;23489;49.600;6.138;2023-05-10T08:21:45;13.80;99.90
37646;DHT22;23489;49.600;6.138;2023-05-10T08:24:10;13.90;99.90
37646;DHT22;23489;49.600;6.138;2023-05-10T08:26:36;13.90;99.90
37646;DHT22;23489;49.600;6.138;2023-05-10T08:29:01;13.80;99.90
37646;DHT22;23489;49.600;6.138;2023-05-10T08:31:27;13.70;99.90
37646;DHT22;23489;49.600;6.138;2023-05-10T08:33:52;13.60;99.90
37646;DHT22;23489;49.600;6.138;2023-05-10T08:36:18;13.40;99.90
37646;DHT22;23489;49.600;6.138;2023-05-10T08:38:47;13.50;99.90
37646;DHT22;23489;49.600;6.138;2023-05-10T08:41:13;13.60;99.90
37646;DHT22;23489;49.600;6.138;2023-05-10T08:43:39;13.70;99.90
37646;DHT22;23489;49.600;6.138;2023-05-10T08:46:06;13.70;99.90
37646;DHT22;23489;49.600;6.138;2023-05-10T08:48:33;13.80;99.90
37646;DHT22;23489;49.600;6.138;2023-05-10T08:50:59;14.10;99.90
37646;DHT22;23489;49.600;6.138;2023-05-10T08:53:25;14.10;99.90
37646;DHT22;23489;49.600;6.138;2023-05-10T08:55:52;13.70;99.90
37646;DHT22;23489;49.600;6.138;2023-05-10T08:58:18;13.40;99.90
37646;DHT22;23489;49.600;6.138;2023-05-10T09:00:44;13.50;99.90
37646;DHT22;23489;49.600;6.138;2023-05-10T09:03:10;13.70;99.90
37646;DHT22;23489;49.600;6.138;2023-05-10T09:05:36;13.70;99.90
37646;DHT22;23489;49.600;6.138;2023-05-10T09:08:02;13.80;99.90
37646;DHT22;23489;49.600;6.138;2023-05-10T09:10:28;14.20;99.90
37646;DHT22;23489;49.600;6.138;2023-05-10T09:12:56;14.40;99.90
37646;DHT22;23489;49.600;6.138;2023-05-10T09:15:21;14.80;99.90
37646;DHT22;23489;49.600;6.138;2023-05-10T09:17:47;15.50;99.90
37646;DHT22;23489;49.600;6.138;2023-05-10T09:20:14;16.90;99.90
37646;DHT22;23489;49.600;6.138;2023-05-10T09:22:39;18.60;99.90
37646;DHT22;23489;49.600;6.138;2023-05-10T09:27:32;19.00;99.90
37646;DHT22;23489;49.600;6.138;2023-05-10T09:29:58;19.20;99.90
37646;DHT22;23489;49.600;6.138;2023-05-10T09:32:37;20.30;99.90
37646;DHT22;23489;49.600;6.138;2023-05-10T09:35:13;20.90;99.90
37646;DHT22;23489;49.600;6.138;2023-05-10T09:37:43;21.50;99.90
37646;DHT22;23489;49.600;6.138;2023-05-10T09:40:14;20.60;99.90
37646;DHT22;23489;49.600;6.138;2023-05-10T09:42:42;20.30;99.90
37646;DHT22;23489;49.600;6.138;2023-05-10T09:45:15;19.70;99.90
37646;DHT22;23489;49.600;6.138;2023-05-10T09:47:41;18.90;99.90
37646;DHT22;23489;49.600;6.138;2023-05-10T09:50:06;18.50;99.90
37646;DHT22;23489;49.600;6.138;2023-05-10T09:52:52;18.00;99.90
37646;DHT22;23489;49.600;6.138;2023-05-10T09:55:20;17.40;99.90
37646;DHT22;23489;49.600;6.138;2023-05-10T09:57:46;16.70;99.90
37646;DHT22;23489;49.600;6.138;2023-05-10T10:00:20;16.90;99.90
37646;DHT22;23489;49.600;6.138;2023-05-10T10:02:55;17.30;99.90
37646;DHT22;23489;49.600;6.138;2023-05-10T10:05:21;17.60;99.90
37646;DHT22;23489;49.600;6.138;2023-05-10T10:07:46;17.60;99.90
37646;DHT22;23489;49.600;6.138;2023-05-10T10:10:14;17.00;99.90
37646;DHT22;23489;49.600;6.138;2023-05-10T10:12:41;16.80;99.90
37646;DHT22;23489;49.600;6.138;2023-05-10T10:15:08;16.90;99.90
37646;DHT22;23489;49.600;6.138;2023-05-10T10:17:36;17.00;99.90
37646;DHT22;23489;49.600;6.138;2023-05-10T10:20:03;16.80;99.90
37646;DHT22;23489;49.600;6.138;2023-05-10T10:22:29;16.90;99.90
37646;DHT22;23489;49.600;6.138;2023-05-10T10:24:55;17.00;99.90
37646;DHT22;23489;49.600;6.138;2023-05-10T10:33:33;16.50;99.90
37646;DHT22;23489;49.600;6.138;2023-05-10T10:36:02;16.70;99.90
37646;DHT22;23489;49.600;6.138;2023-05-10T10:41:33;16.70;99.90
37646;DHT22;23489;49.600;6.138;2023-05-10T10:49:50;19.30;99.90
37646;DHT22;23489;49.600;6.138;2023-05-10T10:52:34;19.50;99.90
37646;DHT22;23489;49.600;6.138;2023-05-10T10:57:26;16.90;99.90
37646;DHT22;23489;49.600;6.138;2023-05-10T11:00:26;16.80;99.90
37646;DHT22;23489;49.600;6.138;2023-05-10T11:02:45;17.10;99.90
37646;DHT22;23489;49.600;6.138;2023-05-10T11:07:55;17.40;99.90
37646;DHT22;23489;49.600;6.138;2023-05-10T11:10:21;17.70;99.90
37646;DHT22;23489;49.600;6.138;2023-05-10T11:15:29;16.70;99.90
37646;DHT22;23489;49.600;6.138;2023-05-10T11:17:55;16.20;99.90
37646;DHT22;23489;49.600;6.138;2023-05-10T11:20:21;16.30;99.90
37646;DHT22;23489;49.600;6.138;2023-05-10T11:22:53;16.10;99.90
37646;DHT22;23489;49.600;6.138;2023-05-10T11:25:19;15.50;99.90
37646;DHT22;23489;49.600;6.138;2023-05-10T11:27:47;15.40;99.90
37646;DHT22;23489;49.600;6.138;2023-05-10T11:30:13;15.40;99.90
37646;DHT22;23489;49.600;6.138;2023-05-10T11:32:39;15.10;99.90
37646;DHT22;23489;49.600;6.138;2023-05-10T11:35:08;15.10;99.90
37646;DHT22;23489;49.600;6.138;2023-05-10T11:37:33;15.20;99.90
37646;DHT22;23489;49.600;6.138;2023-05-10T11:39:59;15.30;99.90
37646;DHT22;23489;49.600;6.138;2023-05-10T11:42:25;15.40;99.90
37646;DHT22;23489;49.600;6.138;2023-05-10T11:44:50;15.40;99.90
37646;DHT22;23489;49.600;6.138;2023-05-10T11:47:16;15.50;99.90
37646;DHT22;23489;49.600;6.138;2023-05-10T11:49:45;15.40;99.90
37646;DHT22;23489;49.600;6.138;2023-05-10T11:52:11;15.00;99.90
37646;DHT22;23489;49.600;6.138;2023-05-10T11:54:36;14.60;99.90
37646;DHT22;23489;49.600;6.138;2023-05-10T11:57:02;15.10;99.90
37646;DHT22;23489;49.600;6.138;2023-05-10T11:59:28;15.30;99.90
37646;DHT22;23489;49.600;6.138;2023-05-10T12:01:54;15.30;99.90
37646;DHT22;23489;49.600;6.138;2023-05-10T12:04:19;15.70;99.90
37646;DHT22;23489;49.600;6.138;2023-05-10T12:06:45;15.60;99.90
37646;DHT22;23489;49.600;6.138;2023-05-10T12:09:11;15.60;99.90
37646;DHT22;23489;49.600;6.138;2023-05-10T12:11:39;15.80;99.90
37646;DHT22;23489;49.600;6.138;2023-05-10T12:14:05;15.80;99.90
37646;DHT22;23489;49.600;6.138;2023-05-10T12:16:31;15.20;99.90
37646;DHT22;23489;49.600;6.138;2023-05-10T12:18:58;15.30;99.90
37646;DHT22;23489;49.600;6.138;2023-05-10T12:21:24;15.70;99.90
37646;DHT22;23489;49.600;6.138;2023-05-10T12:23:50;15.90;99.90
37646;DHT22;23489;49.600;6.138;2023-05-10T12:26:16;16.40;99.90
37646;DHT22;23489;49.600;6.138;2023-05-10T12:28:41;16.30;99.90
37646;DHT22;23489;49.600;6.138;2023-05-10T12:31:07;16.60;99.90
37646;DHT22;23489;49.600;6.138;2023-05-10T12:33:36;16.70;99.90
37646;DHT22;23489;49.600;6.138;2023-05-10T12:36:04;16.60;99.90
37646;DHT22;23489;49.600;6.138;2023-05-10T12:38:37;16.70;99.90
37646;DHT22;23489;49.600;6.138;2023-05-10T12:41:04;16.60;99.90
37646;DHT22;23489;49.600;6.138;2023-05-10T12:43:31;16.40;99.90
37646;DHT22;23489;49.600;6.138;2023-05-10T12:45:58;16.50;99.90
37646;DHT22;23489;49.600;6.138;2023-05-10T12:48:23;16.70;99.90
37646;DHT22;23489;49.600;6.138;2023-05-10T12:50:49;16.70;99.90
37646;DHT22;23489;49.600;6.138;2023-05-10T12:53:14;16.80;99.90
37646;DHT22;23489;49.600;6.138;2023-05-10T12:55:43;16.90;99.90
37646;DHT22;23489;49.600;6.138;2023-05-10T12:58:09;17.00;99.90
37646;DHT22;23489;49.600;6.138;2023-05-10T13:00:35;17.00;99.90
37646;DHT22;23489;49.600;6.138;2023-05-10T13:03:00;17.00;99.90
37646;DHT22;23489;49.600;6.138;2023-05-10T13:05:26;17.10;99.90
37646;DHT22;23489;49.600;6.138;2023-05-10T13:07:51;16.90;99.90
37646;DHT22;23489;49.600;6.138;2023-05-10T13:10:17;17.10;99.90
37646;DHT22;23489;49.600;6.138;2023-05-10T13:12:42;17.20;99.90
37646;DHT22;23489;49.600;6.138;2023-05-10T13:15:08;17.20;99.90
37646;DHT22;23489;49.600;6.138;2023-05-10T13:17:33;16.80;99.90
37646;DHT22;23489;49.600;6.138;2023-05-10T13:19:59;16.60;99.90
37646;DHT22;23489;49.600;6.138;2023-05-10T13:22:25;16.60;99.90
37646;DHT22;23489;49.600;6.138;2023-05-10T13:24:50;16.90;99.90
37646;DHT22;23489;49.600;6.138;2023-05-10T13:27:16;17.20;99.90
37646;DHT22;23489;49.600;6.138;2023-05-10T13:29:41;17.10;99.90
37646;DHT22;23489;49.600;6.138;2023-05-10T13:32:07;17.20;99.90
37646;DHT22;23489;49.600;6.138;2023-05-10T13:34:32;17.20;99.90
37646;DHT22;23489;49.600;6.138;2023-05-10T13:36:58;17.10;99.90
37646;DHT22;23489;49.600;6.138;2023-05-10T13:39:23;17.00;99.90
37646;DHT22;23489;49.600;6.138;2023-05-10T13:41:49;17.10;99.90
37646;DHT22;23489;49.600;6.138;2023-05-10T13:44:14;17.00;99.90
37646;DHT22;23489;49.600;6.138;2023-05-10T13:46:41;16.90;99.90
37646;DHT22;23489;49.600;6.138;2023-05-10T13:49:08;16.80;99.90
37646;DHT22;23489;49.600;6.138;2023-05-10T13:51:34;16.60;99.90
37646;DHT22;23489;49.600;6.138;2023-05-10T13:54:00;16.50;99.90
37646;DHT22;23489;49.600;6.138;2023-05-10T13:56:25;16.50;99.90
37646;DHT22;23489;49.600;6.138;2023-05-10T13:58:51;16.80;99.90
37646;DHT22;23489;49.600;6.138;2023-05-10T14:01:16;16.90;99.90
37646;DHT22;23489;49.600;6.138;2023-05-10T14:03:42;17.20;99.90
37646;DHT22;23489;49.600;6.138;2023-05-10T14:06:08;17.50;99.90
37646;DHT22;23489;49.600;6.138;2023-05-10T14:08:34;17.80;99.90
37646;DHT22;23489;49.600;6.138;2023-05-10T14:10:59;18.20;99.90
37646;DHT22;23489;49.600;6.138;2023-05-10T14:13:25;18.70;99.90
37646;DHT22;23489;49.600;6.138;2023-05-10T14:15:53;18.90;99.90
37646;DHT22;23489;49.600;6.138;2023-05-10T14:18:19;18.90;99.90
37646;DHT22;23489;49.600;6.138;2023-05-10T14:20:44;18.50;99.90
37646;DHT22;23489;49.600;6.138;2023-05-10T14:23:10;18.30;99.90
37646;DHT22;23489;49.600;6.138;2023-05-10T14:25:35;18.10;99.90
37646;DHT22;23489;49.600;6.138;2023-05-10T14:28:01;17.90;99.90
37646;DHT22;23489;49.600;6.138;2023-05-10T14:30:27;17.80;99.90
37646;DHT22;23489;49.600;6.138;2023-05-10T14:32:52;17.80;99.90
37646;DHT22;23489;49.600;6.138;2023-05-10T14:35:19;17.70;99.90
37646;DHT22;23489;49.600;6.138;2023-05-10T14:37:45;18.00;99.90
37646;DHT22;23489;49.600;6.138;2023-05-10T14:40:10;18.00;99.90
37646;DHT22;23489;49.600;6.138;2023-05-10T14:42:36;17.80;99.90
37646;DHT22;23489;49.600;6.138;2023-05-10T14:45:02;17.90;99.90
37646;DHT22;23489;49.600;6.138;2023-05-10T14:47:27;18.00;99.90
37646;DHT22;23489;49.600;6.138;2023-05-10T14:49:53;18.00;99.90
37646;DHT22;23489;49.600;6.138;2023-05-10T14:52:18;18.00;99.90
37646;DHT22;23489;49.600;6.138;2023-05-10T14:54:44;17.70;99.90
37646;DHT22;23489;49.600;6.138;2023-05-10T14:57:09;17.60;99.90
37646;DHT22;23489;49.600;6.138;2023-05-10T14:59:35;17.40;99.90
37646;DHT22;23489;49.600;6.138;2023-05-10T15:02:00;17.20;99.90
37646;DHT22;23489;49.600;6.138;2023-05-10T15:04:26;17.00;99.90
37646;DHT22;23489;49.600;6.138;2023-05-10T15:06:52;16.90;99.90
37646;DHT22;23489;49.600;6.138;2023-05-10T15:09:24;16.80;99.90
37646;DHT22;23489;49.600;6.138;2023-05-10T15:11:49;16.70;99.90
37646;DHT22;23489;49.600;6.138;2023-05-10T15:14:15;16.60;99.90
37646;DHT22;23489;49.600;6.138;2023-05-10T15:16:41;16.60;99.90
37646;DHT22;23489;49.600;6.138;2023-05-10T15:19:06;16.60;99.90
37646;DHT22;23489;49.600;6.138;2023-05-10T15:21:32;16.60;99.90
37646;DHT22;23489;49.600;6.138;2023-05-10T15:24:07;16.30;99.90
37646;DHT22;23489;49.600;6.138;2023-05-10T15:26:32;16.30;99.90
37646;DHT22;23489;49.600;6.138;2023-05-10T15:28:58;16.40;99.90
37646;DHT22;23489;49.600;6.138;2023-05-10T15:31:24;16.30;99.90
37646;DHT22;23489;49.600;6.138;2023-05-10T15:33:49;16.30;99.90
37646;DHT22;23489;49.600;6.138;2023-05-10T15:36:15;16.20;99.90
37646;DHT22;23489;49.600;6.138;2023-05-10T15:38:42;16.20;99.90
37646;DHT22;23489;49.600;6.138;2023-05-10T15:41:07;16.10;99.90
37646;DHT22;23489;49.600;6.138;2023-05-10T15:43:33;16.10;99.90
37646;DHT22;23489;49.600;6.138;2023-05-10T15:45:58;16.10;99.90
37646;DHT22;23489;49.600;6.138;2023-05-10T15:48:24;16.00;99.90
37646;DHT22;23489;49.600;6.138;2023-05-10T15:50:49;15.90;99.90
37646;DHT22;23489;49.600;6.138;2023-05-10T15:53:15;15.90;99.90
37646;DHT22;23489;49.600;6.138;2023-05-10T15:55:40;16.00;99.90
37646;DHT22;23489;49.600;6.138;2023-05-10T15:58:06;16.00;99.90
37646;DHT22;23489;49.600;6.138;2023-05-10T16:00:31;15.90;99.90
37646;DHT22;23489;49.600;6.138;2023-05-10T16:02:57;15.90;99.90
37646;DHT22;23489;49.600;6.138;2023-05-10T16:05:22;15.80;99.90